Time;durP1;ratioP1;P1;durP2;ratioP2;P2;SDS_P1;SDS_P2;PMS_P1;PMS_P2;Temp;Humidity;BMP_temperature;BMP_pressure;BME280_temperature;BME280_humidity;BME280_pressure;Samples;Min_cycle;Max_cycle;Signal;HPM_P1;HPM_P2
2021/07/25 06:28:16;;;;;;;5.53;3.35;;;21.40;99.90;;;;;;5035441;28;20193;-70
2021/07/25 06:30:42;;;;;;;6.18;3.20;;;21.60;99.90;;;;;;5047975;28;20089;-70
2021/07/25 06:33:08;;;;;;;8.20;4.00;;;21.60;99.90;;;;;;5036897;28;20032;-70
2021/07/25 06:35:39;;;;;;;8.20;4.05;;;21.80;99.90;;;;;;5054045;28;20024;-70
2021/07/25 06:38:09;;;;;;;7.70;4.22;;;21.80;99.90;;;;;;5061952;28;20036;-70
2021/07/25 06:40:36;;;;;;;5.43;3.28;;;21.90;99.90;;;;;;5067981;28;20028;-70
2021/07/25 06:43:03;;;;;;;8.98;3.50;;;22.00;99.90;;;;;;5054851;28;20127;-69
2021/07/25 06:45:30;;;;;;;8.57;4.47;;;22.00;99.90;;;;;;5052990;28;20108;-70
2021/07/25 06:47:56;;;;;;;7.15;3.97;;;22.20;99.90;;;;;;5072697;28;20782;-70
2021/07/25 06:50:23;;;;;;;6.28;3.60;;;22.40;99.90;;;;;;5068913;28;20055;-70
2021/07/25 06:52:51;;;;;;;10.07;3.47;;;22.50;99.90;;;;;;5068825;28;20028;-70
2021/07/25 06:55:21;;;;;;;5.75;3.63;;;22.60;99.90;;;;;;5073071;28;20024;-68
2021/07/25 06:57:48;;;;;;;7.68;3.58;;;22.90;99.90;;;;;;5075491;28;20028;-70
2021/07/25 07:00:13;;;;;;;6.65;4.15;;;23.40;99.90;;;;;;5074478;28;20091;-69
2021/07/25 07:02:46;;;;;;;6.93;3.25;;;23.70;99.90;;;;;;5056808;28;20447;-70
2021/07/25 07:05:11;;;;;;;8.48;4.05;;;24.00;99.90;;;;;;5072036;28;20796;-69
2021/07/25 07:07:37;;;;;;;5.00;3.25;;;24.10;99.90;;;;;;5071208;28;20044;-70
2021/07/25 07:10:02;;;;;;;6.65;4.20;;;24.50;99.90;;;;;;5075752;28;20430;-70
2021/07/25 07:12:28;;;;;;;8.90;3.50;;;24.80;99.90;;;;;;5058085;28;20531;-70
2021/07/25 07:14:54;;;;;;;9.55;4.15;;;25.20;99.90;;;;;;5054682;28;20090;-70
2021/07/25 07:17:22;;;;;;;6.55;3.42;;;25.40;99.90;;;;;;5073554;28;20082;-70
2021/07/25 07:19:48;;;;;;;6.88;4.05;;;26.00;99.90;;;;;;5063938;28;20492;-70
2021/07/25 07:22:28;;;;;;;9.70;4.10;;;26.60;99.90;;;;;;5083706;28;20053;-70
2021/07/25 07:24:54;;;;;;;7.15;4.63;;;27.10;99.90;;;;;;5076225;28;20036;-70
2021/07/25 07:27:21;;;;;;;7.45;5.10;;;27.40;99.90;;;;;;5081717;28;20572;-70
2021/07/25 07:29:46;;;;;;;7.82;5.15;;;28.10;99.90;;;;;;5076416;28;20043;-70
2021/07/25 07:32:12;;;;;;;9.75;5.68;;;28.70;99.90;;;;;;5080828;28;20032;-70
2021/07/25 07:34:37;;;;;;;8.65;5.63;;;29.10;99.70;;;;;;5080942;28;20032;-70
2021/07/25 07:37:04;;;;;;;10.18;6.32;;;29.80;97.80;;;;;;5083521;28;20043;-70
2021/07/25 07:39:30;;;;;;;10.88;6.60;;;30.10;96.50;;;;;;5084555;28;20054;-70
2021/07/25 07:41:55;;;;;;;14.13;7.30;;;30.70;95.30;;;;;;5083059;28;20039;-71
2021/07/25 07:44:21;;;;;;;14.35;7.20;;;31.00;94.30;;;;;;5085099;28;20036;-70
2021/07/25 07:46:46;;;;;;;6.68;5.20;;;31.20;93.50;;;;;;5084009;28;20039;-71
2021/07/25 07:49:12;;;;;;;9.13;7.05;;;31.60;93.10;;;;;;5086376;28;20051;-71
2021/07/25 07:51:37;;;;;;;9.68;6.78;;;31.90;91.50;;;;;;5065718;28;20036;-71
2021/07/25 07:54:03;;;;;;;12.05;6.03;;;31.80;90.80;;;;;;5079584;28;20507;-71
2021/07/25 07:56:31;;;;;;;13.25;7.20;;;32.40;90.50;;;;;;5082383;28;20508;-71
2021/07/25 07:58:57;;;;;;;8.20;6.18;;;32.80;88.30;;;;;;5078758;28;20415;-71
2021/07/25 08:01:22;;;;;;;10.55;8.18;;;33.30;86.70;;;;;;5070003;28;20085;-71
2021/07/25 08:03:48;;;;;;;10.50;8.43;;;33.80;82.30;;;;;;5082976;28;20225;-71
2021/07/25 08:06:14;;;;;;;11.35;8.93;;;33.50;81.60;;;;;;5084534;28;20025;-70
2021/07/25 08:08:39;;;;;;;11.18;8.35;;;33.40;80.70;;;;;;5085029;28;20024;-71
2021/07/25 08:11:05;;;;;;;11.07;8.07;;;33.80;80.30;;;;;;5086677;28;20699;-70
2021/07/25 08:13:30;;;;;;;9.95;8.40;;;33.60;77.90;;;;;;5085973;28;20032;-71
2021/07/25 08:15:56;;;;;;;11.40;7.85;;;33.70;77.20;;;;;;5079765;28;20036;-70
2021/07/25 08:18:21;;;;;;;9.70;7.15;;;33.60;78.30;;;;;;5061602;28;20040;-71
2021/07/25 08:20:47;;;;;;;11.32;8.55;;;33.60;78.80;;;;;;5068840;28;20043;-70
2021/07/25 08:23:12;;;;;;;11.40;8.63;;;33.50;76.30;;;;;;5085121;28;20038;-70
2021/07/25 08:25:38;;;;;;;13.25;9.15;;;33.00;78.50;;;;;;5070069;28;20028;-70
2021/07/25 08:28:03;;;;;;;12.70;9.60;;;32.90;77.80;;;;;;5083623;28;20040;-71
2021/07/25 08:30:31;;;;;;;11.88;9.10;;;32.60;78.10;;;;;;5088428;28;20039;-70
2021/07/25 08:32:56;;;;;;;14.02;8.20;;;32.70;78.00;;;;;;5086666;28;20044;-70
2021/07/25 08:35:22;;;;;;;10.55;8.10;;;32.60;78.40;;;;;;5089462;28;20118;-70
2021/07/25 08:37:47;;;;;;;10.57;7.53;;;32.50;77.50;;;;;;5087289;28;20480;-70
2021/07/25 08:40:15;;;;;;;11.50;8.30;;;32.20;78.40;;;;;;5083323;28;20040;-71
2021/07/25 08:42:52;;;;;;;10.35;6.82;;;31.80;78.20;;;;;;5086911;28;20040;-70
2021/07/25 08:45:18;;;;;;;12.32;6.97;;;31.60;78.00;;;;;;5088305;28;20032;-70
2021/07/25 08:47:48;;;;;;;10.25;6.55;;;31.20;79.40;;;;;;5077846;28;20036;-70
2021/07/25 08:50:14;;;;;;;;;;;30.90;80.70;;;;;;5058574;28;20527;-71
2021/07/25 08:52:42;;;;;;;10.52;5.55;;;30.40;81.50;;;;;;5086866;28;19916;-70
2021/07/25 08:55:14;;;;;;;10.82;5.15;;;30.10;83.20;;;;;;5087737;28;20492;-70
2021/07/25 08:57:42;;;;;;;18.40;5.20;;;29.90;83.40;;;;;;5083304;28;20036;-70
2021/07/25 09:00:10;;;;;;;11.93;5.00;;;29.60;83.60;;;;;;5086549;28;20040;-70
2021/07/25 09:02:36;;;;;;;9.40;4.53;;;29.20;86.50;;;;;;5086740;28;20035;-70
2021/07/25 09:05:02;;;;;;;10.77;4.82;;;28.90;85.80;;;;;;5087424;28;20100;-71
2021/07/25 09:07:30;;;;;;;12.48;4.85;;;28.70;87.00;;;;;;5067344;28;20123;-71
2021/07/25 09:10:17;;;;;;;8.68;5.00;;;28.70;89.00;;;;;;5061384;28;20051;-70
2021/07/25 09:12:44;;;;;;;9.15;4.70;;;28.50;90.10;;;;;;5086327;28;20032;-70
2021/07/25 09:15:15;;;;;;;11.35;5.18;;;28.50;90.10;;;;;;5084854;28;20036;-70
2021/07/25 09:17:41;;;;;;;10.73;4.95;;;28.30;88.60;;;;;;5081840;28;20477;-70
2021/07/25 09:20:11;;;;;;;7.93;4.45;;;28.30;90.30;;;;;;5067726;28;20090;-70
2021/07/25 09:22:52;;;;;;;10.75;4.28;;;28.20;90.20;;;;;;5066393;28;20047;-70
2021/07/25 09:25:21;;;;;;;13.55;4.38;;;28.20;90.30;;;;;;5085968;28;20032;-71
2021/07/25 09:27:47;;;;;;;9.82;4.82;;;28.30;90.30;;;;;;5085372;28;20101;-71
2021/07/25 09:30:17;;;;;;;10.73;4.88;;;28.40;89.80;;;;;;5084460;28;20036;-70
2021/07/25 09:32:44;;;;;;;;;;;28.30;90.10;;;;;;5080451;28;20040;-70
2021/07/25 09:35:29;;;;;;;10.20;4.43;;;28.10;90.50;;;;;;5086862;28;20446;-70
2021/07/25 09:38:04;;;;;;;7.13;4.18;;;28.00;91.20;;;;;;5059765;28;20496;-71
2021/07/25 09:40:37;;;;;;;7.97;4.32;;;28.10;91.30;;;;;;5059905;28;20040;-70
2021/07/25 09:43:10;;;;;;;7.32;4.10;;;28.00;91.00;;;;;;5086974;28;20056;-68
2021/07/25 09:46:02;;;;;;;9.23;4.97;;;28.10;91.00;;;;;;5083246;28;20553;-72
2021/07/25 09:48:33;;;;;;;6.90;4.00;;;27.80;91.00;;;;;;5060237;28;20094;-71
2021/07/25 09:51:17;;;;;;;7.45;3.75;;;27.70;91.70;;;;;;5086398;28;20086;-70
2021/07/25 09:53:44;;;;;;;6.10;3.63;;;27.90;91.70;;;;;;5085193;28;20048;-71
2021/07/25 09:56:14;;;;;;;9.98;4.30;;;27.90;91.90;;;;;;5085630;28;20032;-70
2021/07/25 09:58:40;;;;;;;12.68;4.82;;;27.90;91.30;;;;;;5067227;28;20044;-71
2021/07/25 10:01:06;;;;;;;7.22;3.92;;;28.00;92.00;;;;;;5065403;28;20567;-70
2021/07/25 10:03:34;;;;;;;12.38;4.65;;;28.20;92.30;;;;;;5085969;28;20127;-71
2021/07/25 10:06:23;;;;;;;9.23;4.32;;;27.90;91.60;;;;;;5084813;28;20096;-71
2021/07/25 10:09:11;;;;;;;8.77;4.47;;;27.50;90.90;;;;;;5063972;28;20035;-70
2021/07/25 10:11:39;;;;;;;7.88;4.40;;;27.20;92.50;;;;;;5084333;28;20404;-70
2021/07/25 10:14:04;;;;;;;11.25;4.85;;;26.90;92.70;;;;;;5084587;28;20043;-70
2021/07/25 10:16:30;;;;;;;8.10;4.75;;;26.80;92.80;;;;;;5085816;28;20035;-71
2021/07/25 10:18:57;;;;;;;8.85;4.22;;;26.90;93.30;;;;;;5085143;28;20032;-70
2021/07/25 10:21:24;;;;;;;6.38;3.83;;;27.30;92.20;;;;;;5086955;28;20412;-70
2021/07/25 10:23:57;;;;;;;7.88;3.15;;;27.30;92.40;;;;;;5085284;28;20034;-70
2021/07/25 10:26:28;;;;;;;7.22;3.03;;;27.50;91.90;;;;;;5082063;28;20035;-70
2021/07/25 10:28:58;;;;;;;5.45;3.20;;;27.60;90.20;;;;;;5080242;28;20067;-70
2021/07/25 10:31:25;;;;;;;4.65;2.30;;;27.70;90.30;;;;;;5086367;28;20526;-70
2021/07/25 10:33:53;;;;;;;4.00;2.35;;;27.80;90.00;;;;;;5082102;28;20059;-70
2021/07/25 10:36:19;;;;;;;3.80;1.92;;;28.10;87.30;;;;;;5085796;28;20043;-71
2021/07/25 10:38:48;;;;;;;6.65;2.40;;;28.30;85.10;;;;;;5065183;28;20043;-70
2021/07/25 10:41:18;;;;;;;5.78;2.72;;;28.40;84.80;;;;;;5083669;28;20754;-70
2021/07/25 10:43:44;;;;;;;6.07;2.28;;;28.40;88.30;;;;;;5086167;28;20372;-71
2021/07/25 10:46:23;;;;;;;3.47;1.80;;;28.50;84.80;;;;;;5062397;28;20510;-70
2021/07/25 10:49:05;;;;;;;3.88;1.55;;;28.50;83.30;;;;;;5082561;28;20518;-71
2021/07/25 10:51:34;;;;;;;4.00;1.80;;;28.60;84.30;;;;;;5074867;28;20040;-71
2021/07/25 10:54:22;;;;;;;5.72;1.40;;;28.70;85.40;;;;;;5072896;28;20127;-70
2021/07/25 10:57:02;;;;;;;3.60;1.65;;;28.60;84.50;;;;;;5059305;28;20033;-71
2021/07/25 10:59:50;;;;;;;3.05;1.90;;;28.90;85.60;;;;;;5073535;28;20036;-71
2021/07/25 11:02:22;;;;;;;3.15;2.10;;;28.90;83.70;;;;;;5074655;28;20035;-71
2021/07/25 11:04:53;;;;;;;4.95;2.70;;;29.00;86.10;;;;;;5081773;28;20032;-70
2021/07/25 11:07:24;;;;;;;5.20;2.40;;;29.20;86.60;;;;;;5059594;28;20044;-71
2021/07/25 11:10:10;;;;;;;4.78;2.72;;;29.30;84.70;;;;;;5085577;28;20476;-71
2021/07/25 11:12:50;;;;;;;5.55;2.45;;;29.50;84.70;;;;;;5082533;28;20054;-71
2021/07/25 11:15:28;;;;;;;4.43;2.00;;;29.50;84.50;;;;;;5083161;28;20036;-71
2021/07/25 11:17:55;;;;;;;3.97;1.88;;;29.10;82.60;;;;;;5058318;28;20135;-70
2021/07/25 11:20:41;;;;;;;4.95;2.60;;;28.90;84.60;;;;;;5056992;28;20029;-70
2021/07/25 11:23:12;;;;;;;4.80;2.45;;;28.90;85.30;;;;;;5058479;28;20047;-70
2021/07/25 11:25:39;;;;;;;4.00;2.40;;;28.90;84.10;;;;;;5060285;28;20040;-70
2021/07/25 11:28:06;;;;;;;8.27;3.05;;;28.80;85.20;;;;;;5075373;28;20056;-70
2021/07/25 11:30:51;;;;;;;4.18;2.15;;;28.50;84.90;;;;;;5055516;28;20485;-70
2021/07/25 11:33:44;;;;;;;8.73;2.90;;;28.30;85.70;;;;;;5051347;28;20045;-70
2021/07/25 11:36:23;;;;;;;4.30;2.17;;;28.10;86.50;;;;;;5080500;28;20036;-70
2021/07/25 11:38:55;;;;;;;8.35;2.38;;;27.80;87.00;;;;;;5076630;28;20131;-68
2021/07/25 11:41:26;;;;;;;2.63;1.50;;;27.60;85.70;;;;;;5080596;28;20133;-69
2021/07/25 11:44:02;;;;;;;3.05;1.85;;;27.40;85.20;;;;;;5080468;28;20067;-69
2021/07/25 11:46:41;;;;;;;3.30;2.20;;;27.40;87.80;;;;;;5061264;28;20094;-74
2021/07/25 11:49:12;;;;;;;3.92;1.48;;;27.30;86.90;;;;;;5078823;28;20040;-70
2021/07/25 11:51:58;;;;;;;5.90;1.75;;;27.30;84.90;;;;;;5084106;28;20129;-69
2021/07/25 11:54:34;;;;;;;4.35;1.80;;;27.20;86.50;;;;;;5057949;28;20124;-69
2021/07/25 11:57:08;;;;;;;4.70;1.63;;;27.30;86.00;;;;;;5062035;28;20032;-69
2021/07/25 11:59:39;;;;;;;6.22;1.63;;;27.50;86.80;;;;;;5077485;28;20039;-69
2021/07/25 12:02:08;;;;;;;3.50;1.33;;;27.70;87.00;;;;;;5071374;28;20032;-69
2021/07/25 12:04:39;;;;;;;3.53;1.58;;;27.90;85.30;;;;;;5062249;28;20038;-69
2021/07/25 12:07:12;;;;;;;3.72;1.63;;;28.20;86.30;;;;;;5080530;28;20480;-70
2021/07/25 12:09:41;;;;;;;3.78;1.75;;;28.30;82.80;;;;;;5060224;28;20738;-67
2021/07/25 12:12:19;;;;;;;5.03;2.38;;;28.50;82.70;;;;;;5063834;28;20046;-71
2021/07/25 12:14:50;;;;;;;5.15;3.38;;;28.50;83.70;;;;;;5060939;28;20040;-70
2021/07/25 12:17:46;;;;;;;6.63;3.33;;;28.60;85.80;;;;;;5055095;28;20039;-70
2021/07/25 12:20:14;;;;;;;6.28;3.95;;;28.70;85.10;;;;;;5076834;28;20119;-69
2021/07/25 12:22:50;;;;;;;5.43;3.00;;;28.80;85.20;;;;;;5082696;28;20504;-70
2021/07/25 12:25:16;;;;;;;9.73;3.75;;;28.90;86.60;;;;;;5051285;28;20113;-70
2021/07/25 12:27:41;;;;;;;5.05;2.75;;;28.60;86.30;;;;;;5054068;28;20130;-70
2021/07/25 12:30:09;;;;;;;6.30;3.08;;;28.50;85.50;;;;;;5083605;28;20047;-70
2021/07/25 12:32:35;;;;;;;4.90;2.40;;;28.50;84.50;;;;;;5063250;28;20028;-70
2021/07/25 12:35:11;;;;;;;8.25;2.40;;;28.50;83.80;;;;;;5082134;28;20492;-70
2021/07/25 12:38:00;;;;;;;5.75;2.70;;;28.60;83.90;;;;;;5051817;28;20056;-70
2021/07/25 12:40:27;;;;;;;5.63;2.50;;;28.60;84.60;;;;;;5051808;28;20033;-70
2021/07/25 12:42:59;;;;;;;4.10;2.95;;;28.60;84.00;;;;;;5054878;28;20052;-70
2021/07/25 12:45:33;;;;;;;7.53;2.53;;;28.50;85.10;;;;;;5074003;28;20100;-69
2021/07/25 12:48:16;;;;;;;6.78;3.10;;;28.60;86.90;;;;;;5059551;28;20106;-69
2021/07/25 12:54:00;;;;;;;8.85;2.83;;;28.80;85.00;;;;;;5075326;28;20814;-69
2021/07/25 12:56:28;;;;;;;6.40;2.50;;;28.80;82.50;;;;;;5076752;28;20032;-69
2021/07/25 12:58:57;;;;;;;4.75;2.30;;;28.80;82.80;;;;;;5075321;28;20067;-70
2021/07/25 13:03:57;;;;;;;4.40;2.10;;;28.40;85.70;;;;;;5086841;28;20040;-70
2021/07/25 13:06:35;;;;;;;3.63;1.40;;;28.20;83.50;;;;;;5058793;28;20032;-70
2021/07/25 13:09:03;;;;;;;3.60;2.10;;;28.10;85.50;;;;;;5078169;28;20435;-69
2021/07/25 13:11:33;;;;;;;4.13;1.73;;;28.20;86.70;;;;;;5056070;28;20112;-69
2021/07/25 13:14:03;;;;;;;3.20;1.58;;;28.50;84.30;;;;;;5085050;28;20040;-70
2021/07/25 13:16:28;;;;;;;3.58;1.77;;;28.90;82.10;;;;;;5083959;28;20051;-69
2021/07/25 13:18:56;;;;;;;6.75;1.95;;;29.00;80.60;;;;;;5050396;28;20044;-69
2021/07/25 13:21:22;;;;;;;2.33;1.00;;;29.00;80.70;;;;;;5082274;28;20031;-70
2021/07/25 13:23:48;;;;;;;3.47;1.35;;;29.20;79.80;;;;;;5062998;28;20055;-70
2021/07/25 13:26:14;;;;;;;3.28;1.20;;;29.20;79.00;;;;;;5072510;28;20063;-70
2021/07/25 13:28:40;;;;;;;1.70;1.00;;;29.30;80.60;;;;;;5049782;28;20029;-70
2021/07/25 13:31:06;;;;;;;4.60;1.92;;;29.10;78.90;;;;;;5081606;28;20089;-71
2021/07/25 13:33:33;;;;;;;2.88;1.65;;;28.70;80.10;;;;;;5080111;28;20416;-70
2021/07/25 13:36:03;;;;;;;2.63;1.77;;;28.60;82.20;;;;;;5081594;28;20036;-69
2021/07/25 13:38:30;;;;;;;5.72;2.72;;;28.30;82.80;;;;;;5081768;28;20039;-71
2021/07/25 13:40:56;;;;;;;5.35;2.08;;;27.90;83.90;;;;;;5080519;28;20044;-71
2021/07/25 13:43:23;;;;;;;4.32;1.65;;;27.70;85.30;;;;;;5082197;28;20036;-70
2021/07/25 13:46:00;;;;;;;4.45;2.00;;;27.30;86.40;;;;;;5083171;28;20036;-70
2021/07/25 13:48:36;;;;;;;4.95;2.00;;;27.10;87.70;;;;;;5060627;28;20075;-70
2021/07/25 13:51:10;;;;;;;10.20;3.10;;;26.90;87.70;;;;;;5080344;28;20044;-68
2021/07/25 13:53:37;;;;;;;7.78;3.13;;;26.60;90.50;;;;;;5049316;28;20040;-67
2021/07/25 13:56:04;;;;;;;10.57;3.78;;;25.90;95.10;;;;;;5055106;28;20037;-68
2021/07/25 13:58:30;;;;;;;8.20;2.70;;;25.30;99.90;;;;;;5079729;28;20439;-69
2021/07/25 14:00:55;;;;;;;7.70;3.22;;;24.30;99.90;;;;;;5058739;28;20075;-70
2021/07/25 14:03:21;;;;;;;19.08;3.95;;;23.40;99.90;;;;;;5082208;28;20101;-68
2021/07/25 14:05:47;;;;;;;8.68;3.38;;;22.70;99.90;;;;;;5083092;28;20039;-69
2021/07/25 14:08:14;;;;;;;12.00;3.40;;;22.20;99.90;;;;;;5081705;28;20032;-70
2021/07/25 14:10:39;;;;;;;9.02;3.88;;;21.80;99.90;;;;;;5054245;28;20119;-69
2021/07/25 14:13:05;;;;;;;13.95;4.32;;;21.70;99.90;;;;;;5074345;28;20557;-69
2021/07/25 14:15:34;;;;;;;10.50;4.55;;;21.70;99.90;;;;;;5084785;28;20040;-70
2021/07/25 14:18:04;;;;;;;10.07;4.30;;;21.60;99.90;;;;;;5079846;28;20093;-70
2021/07/25 14:20:32;;;;;;;10.32;3.88;;;21.50;99.90;;;;;;5052723;28;20043;-69
2021/07/25 14:22:58;;;;;;;12.80;4.05;;;21.30;99.90;;;;;;5084401;28;20119;-70
2021/07/25 14:25:24;;;;;;;7.15;3.47;;;21.20;99.90;;;;;;5079363;28;20032;-70
2021/07/25 14:27:50;;;;;;;14.02;3.90;;;21.10;99.90;;;;;;5074880;28;20032;-70
2021/07/25 14:30:15;;;;;;;10.85;3.45;;;21.00;99.90;;;;;;5079135;28;20555;-70
2021/07/25 14:32:41;;;;;;;11.43;4.43;;;21.00;99.90;;;;;;5083524;28;20039;-70
2021/07/25 14:35:08;;;;;;;8.85;4.47;;;20.90;99.90;;;;;;5057125;28;20067;-70
2021/07/25 14:37:34;;;;;;;8.93;3.90;;;20.90;99.90;;;;;;5081327;28;20456;-70
2021/07/25 14:40:00;;;;;;;6.05;2.63;;;20.80;99.90;;;;;;5058835;28;20060;-70
2021/07/25 14:42:26;;;;;;;8.80;2.63;;;20.80;99.90;;;;;;5080990;28;20059;-71
2021/07/25 14:44:51;;;;;;;6.00;2.05;;;20.70;99.90;;;;;;5054830;28;20052;-71
2021/07/25 14:47:17;;;;;;;6.32;1.85;;;20.70;99.90;;;;;;5082450;28;20117;-70
2021/07/25 14:49:42;;;;;;;2.75;1.15;;;20.60;99.90;;;;;;5075511;28;20036;-70
2021/07/25 14:52:08;;;;;;;2.85;1.20;;;20.50;99.90;;;;;;5078577;28;20040;-70
2021/07/25 14:54:38;;;;;;;1.60;1.00;;;20.30;99.90;;;;;;5081613;28;20031;-70
2021/07/25 14:57:05;;;;;;;3.70;1.27;;;20.20;99.90;;;;;;5076897;28;20040;-70
2021/07/25 14:59:31;;;;;;;8.10;1.90;;;20.20;99.90;;;;;;5075582;28;20672;-70
2021/07/25 15:01:56;;;;;;;6.63;1.42;;;20.20;99.90;;;;;;5052476;28;20047;-70
2021/07/25 15:04:22;;;;;;;4.63;1.63;;;20.20;99.90;;;;;;5056617;28;20024;-70
2021/07/25 15:06:49;;;;;;;4.50;1.40;;;20.20;99.90;;;;;;5076214;28;20485;-70
2021/07/25 15:09:15;;;;;;;4.25;1.50;;;20.20;99.90;;;;;;5078859;28;20024;-70
2021/07/25 15:11:41;;;;;;;6.28;1.88;;;20.20;99.90;;;;;;5081730;28;20028;-72
2021/07/25 15:14:14;;;;;;;3.20;1.92;;;20.20;99.90;;;;;;5081867;28;20586;-70
2021/07/25 15:16:40;;;;;;;2.05;1.13;;;20.20;99.90;;;;;;5075477;28;20024;-71
2021/07/25 15:19:07;;;;;;;4.30;1.50;;;20.10;99.90;;;;;;5046605;28;20036;-72
2021/07/25 15:21:32;;;;;;;7.28;1.77;;;20.10;99.90;;;;;;5076081;28;20031;-71
2021/07/25 15:23:58;;;;;;;7.55;1.83;;;20.00;99.90;;;;;;5080146;28;20036;-72
2021/07/25 15:26:23;;;;;;;8.55;1.73;;;20.00;99.90;;;;;;5080214;28;20385;-70
2021/07/25 15:28:49;;;;;;;3.75;1.30;;;19.80;99.90;;;;;;5080098;28;20434;-68
2021/07/25 15:31:19;;;;;;;6.47;1.30;;;19.60;99.90;;;;;;5082008;28;20817;-69
2021/07/25 15:33:47;;;;;;;7.95;2.00;;;19.50;99.90;;;;;;5084138;28;20067;-69
2021/07/25 15:36:13;;;;;;;4.78;1.90;;;19.40;99.90;;;;;;5077775;28;20116;-69
2021/07/25 15:38:38;;;;;;;6.55;2.22;;;19.40;99.90;;;;;;5077460;28;20118;-69
2021/07/25 15:41:05;;;;;;;12.55;2.97;;;19.30;99.90;;;;;;5075213;28;20093;-69
2021/07/25 15:43:30;;;;;;;11.80;3.05;;;19.40;99.90;;;;;;5069946;28;20133;-69
2021/07/25 15:46:10;;;;;;;7.85;3.05;;;19.40;99.90;;;;;;5050119;28;20650;-70
2021/07/25 15:48:36;;;;;;;7.18;2.45;;;19.50;99.90;;;;;;5078393;28;20048;-70
2021/07/25 15:51:02;;;;;;;5.85;3.25;;;19.60;99.90;;;;;;5078657;28;20476;-69
2021/07/25 15:53:28;;;;;;;4.65;2.45;;;19.60;99.90;;;;;;5047716;28;20036;-69
2021/07/25 15:55:54;;;;;;;10.32;3.38;;;19.70;99.90;;;;;;5054774;28;20036;-70
2021/07/25 15:58:20;;;;;;;5.55;2.65;;;19.70;99.90;;;;;;5078931;28;20039;-70
2021/07/25 16:00:47;;;;;;;3.92;2.30;;;19.70;99.90;;;;;;5087489;28;20028;-69
2021/07/25 16:03:12;;;;;;;6.60;2.10;;;19.70;99.90;;;;;;5084435;28;20028;-70
2021/07/25 16:05:39;;;;;;;7.20;1.98;;;19.70;99.90;;;;;;5084478;28;20735;-70
2021/07/25 16:08:06;;;;;;;3.53;1.70;;;19.70;99.90;;;;;;5072279;28;20044;-70
2021/07/25 16:10:33;;;;;;;3.75;1.75;;;19.80;99.90;;;;;;5057632;28;20043;-70
2021/07/25 16:12:59;;;;;;;3.30;1.73;;;19.90;99.90;;;;;;5082419;28;20038;-70
2021/07/25 16:15:25;;;;;;;4.90;1.58;;;20.00;99.90;;;;;;5075614;28;20033;-70
2021/07/25 16:17:50;;;;;;;3.45;1.85;;;20.10;99.90;;;;;;5079619;28;20128;-71
2021/07/25 16:20:16;;;;;;;3.00;1.70;;;20.20;99.90;;;;;;5079487;28;20453;-70
2021/07/25 16:22:41;;;;;;;7.65;1.85;;;20.40;99.90;;;;;;5079161;28;20043;-70
2021/07/25 16:25:08;;;;;;;2.83;1.52;;;20.50;99.90;;;;;;5081311;28;20075;-70
2021/07/25 16:27:33;;;;;;;3.72;1.65;;;20.60;99.90;;;;;;5050537;28;20036;-70
2021/07/25 16:29:59;;;;;;;2.72;1.40;;;20.60;99.90;;;;;;5070690;28;20034;-70
2021/07/25 16:32:24;;;;;;;3.88;1.30;;;20.60;99.90;;;;;;5062203;28;20032;-70
2021/07/25 16:34:50;;;;;;;4.43;1.17;;;20.70;99.90;;;;;;5082854;28;20691;-70
2021/07/25 16:37:16;;;;;;;3.65;1.55;;;20.70;99.90;;;;;;5057120;28;20496;-70
2021/07/25 16:39:41;;;;;;;3.63;1.25;;;20.70;99.90;;;;;;5078870;28;20028;-70
2021/07/25 16:42:07;;;;;;;5.03;2.33;;;20.80;99.90;;;;;;5084820;28;20438;-70
2021/07/25 16:44:33;;;;;;;4.68;1.08;;;20.80;99.90;;;;;;5051222;28;20502;-70
2021/07/25 16:46:58;;;;;;;3.65;1.73;;;20.90;99.90;;;;;;5077088;28;20036;-70
2021/07/25 16:49:24;;;;;;;3.95;1.75;;;20.90;99.90;;;;;;5086097;28;20115;-70
2021/07/25 16:51:50;;;;;;;5.40;1.45;;;20.90;99.90;;;;;;5082896;28;20052;-70
2021/07/25 16:54:15;;;;;;;5.53;2.00;;;20.90;99.90;;;;;;5085080;28;20094;-70
2021/07/25 16:56:41;;;;;;;3.20;1.67;;;21.00;99.90;;;;;;5078884;28;20061;-70
2021/07/25 16:59:07;;;;;;;3.40;1.50;;;21.00;99.90;;;;;;5059047;28;20107;-70
2021/07/25 17:01:34;;;;;;;1.88;1.20;;;20.90;99.90;;;;;;5083460;28;20310;-70
2021/07/25 17:04:00;;;;;;;2.80;1.48;;;20.90;99.90;;;;;;5070932;28;20032;-70
2021/07/25 17:06:26;;;;;;;3.40;0.90;;;20.80;99.90;;;;;;5067089;28;20035;-74
2021/07/25 17:08:52;;;;;;;3.53;1.23;;;20.70;99.90;;;;;;5072928;28;20039;-70
2021/07/25 17:11:20;;;;;;;3.70;1.27;;;20.70;99.90;;;;;;5080473;28;20544;-70
2021/07/25 17:13:48;;;;;;;3.88;1.40;;;20.60;99.90;;;;;;5081945;28;20040;-70
2021/07/25 17:16:25;;;;;;;2.40;1.40;;;20.60;99.90;;;;;;5058051;28;20067;-70
2021/07/25 17:18:52;;;;;;;2.50;1.25;;;20.60;99.90;;;;;;5053367;28;20432;-71
2021/07/25 17:21:17;;;;;;;4.55;1.60;;;20.50;99.90;;;;;;5068134;28;20436;-71
2021/07/25 17:23:43;;;;;;;4.47;1.10;;;20.50;99.90;;;;;;5076861;28;20036;-71
2021/07/25 17:26:09;;;;;;;3.58;1.27;;;20.40;99.90;;;;;;5079268;28;20035;-71
2021/07/25 17:28:34;;;;;;;5.03;1.63;;;20.40;99.90;;;;;;5084101;28;20047;-71
2021/07/25 17:31:00;;;;;;;8.68;1.60;;;20.30;99.90;;;;;;5082621;28;20044;-71
2021/07/25 17:33:27;;;;;;;3.83;1.52;;;20.30;99.90;;;;;;5079704;28;20427;-71
2021/07/25 17:35:53;;;;;;;2.63;1.23;;;20.30;99.90;;;;;;5051054;28;20123;-71
2021/07/25 17:38:22;;;;;;;3.72;1.27;;;20.20;99.90;;;;;;5075579;28;20276;-71
2021/07/25 17:40:47;;;;;;;4.20;1.63;;;20.20;99.90;;;;;;5081691;28;20035;-71
2021/07/25 17:43:15;;;;;;;3.72;1.40;;;20.10;99.90;;;;;;5073142;28;20036;-71
2021/07/25 17:45:41;;;;;;;5.47;1.70;;;20.10;99.90;;;;;;5080517;28;20032;-71
2021/07/25 17:48:06;;;;;;;4.38;1.52;;;20.10;99.90;;;;;;5051615;28;20048;-71
2021/07/25 17:50:32;;;;;;;6.38;1.27;;;20.10;99.90;;;;;;5079560;28;20120;-71
2021/07/25 17:52:58;;;;;;;2.33;1.10;;;20.10;99.90;;;;;;5048534;28;20064;-71
2021/07/25 17:55:23;;;;;;;3.95;1.67;;;20.10;99.90;;;;;;5080781;28;20032;-71
2021/07/25 17:57:49;;;;;;;3.60;1.50;;;20.20;99.90;;;;;;5078197;28;20029;-71
2021/07/25 18:00:15;;;;;;;4.72;1.58;;;20.10;99.90;;;;;;5078683;28;20107;-71
2021/07/25 18:02:40;;;;;;;5.60;1.80;;;20.20;99.90;;;;;;5085503;28;20134;-71
2021/07/25 18:05:10;;;;;;;4.70;1.38;;;20.20;99.90;;;;;;5081079;28;20283;-72
2021/07/25 18:07:36;;;;;;;2.45;1.10;;;20.20;99.90;;;;;;5081474;28;20063;-71
2021/07/25 18:10:02;;;;;;;1.85;1.08;;;20.20;99.90;;;;;;5077364;28;20365;-72
2021/07/25 18:12:29;;;;;;;2.25;1.25;;;20.20;99.90;;;;;;5085440;28;20949;-72
2021/07/25 18:14:54;;;;;;;2.58;1.25;;;20.20;99.90;;;;;;5078630;28;20474;-71
2021/07/25 18:17:20;;;;;;;2.60;0.98;;;20.20;99.90;;;;;;5083942;28;20032;-72
2021/07/25 18:19:45;;;;;;;3.63;1.08;;;20.20;99.90;;;;;;5080540;28;20144;-71
2021/07/25 18:22:11;;;;;;;2.25;1.20;;;20.20;99.90;;;;;;5079335;28;20040;-71
2021/07/25 18:24:38;;;;;;;1.60;1.02;;;20.20;99.90;;;;;;5061867;28;20036;-72
2021/07/25 18:27:04;;;;;;;2.25;1.02;;;20.20;99.90;;;;;;5073405;28;20111;-72
2021/07/25 18:29:30;;;;;;;1.70;0.95;;;20.20;99.90;;;;;;5056391;28;20078;-71
2021/07/25 18:31:55;;;;;;;2.42;1.30;;;20.30;99.90;;;;;;5080960;28;20074;-72
2021/07/25 18:34:21;;;;;;;2.75;0.95;;;20.30;99.90;;;;;;5059430;28;20036;-72
2021/07/25 18:36:48;;;;;;;1.77;0.80;;;20.30;99.90;;;;;;5072189;28;20033;-71
2021/07/25 18:39:13;;;;;;;1.42;0.68;;;20.30;99.90;;;;;;5077161;28;20028;-72
2021/07/25 18:41:39;;;;;;;2.10;1.00;;;20.20;99.90;;;;;;5069626;28;20046;-71
2021/07/25 18:44:10;;;;;;;4.15;1.52;;;20.20;99.90;;;;;;5082042;28;20032;-72
2021/07/25 18:46:36;;;;;;;1.88;1.00;;;20.10;99.90;;;;;;5054134;28;20036;-71
2021/07/25 18:49:03;;;;;;;3.83;1.00;;;20.10;99.90;;;;;;5080849;28;20118;-71
2021/07/25 18:51:29;;;;;;;2.60;1.35;;;20.10;99.90;;;;;;5075496;28;20480;-72
2021/07/25 18:53:56;;;;;;;3.58;1.27;;;20.00;99.90;;;;;;5082643;28;20040;-72
2021/07/25 18:56:25;;;;;;;5.45;1.77;;;20.10;99.90;;;;;;5076520;28;20055;-71
2021/07/25 18:58:51;;;;;;;2.35;1.33;;;20.00;99.90;;;;;;5073418;28;20036;-72
2021/07/25 19:01:17;;;;;;;3.40;1.80;;;20.00;99.90;;;;;;5083928;28;20028;-71
2021/07/25 19:03:43;;;;;;;2.83;1.58;;;19.90;99.90;;;;;;5079296;28;20174;-71
2021/07/25 19:06:16;;;;;;;5.68;2.10;;;20.00;99.90;;;;;;5047068;28;20131;-71
2021/07/25 19:08:42;;;;;;;3.72;1.83;;;20.10;99.90;;;;;;5080254;28;20108;-71
2021/07/25 19:11:15;;;;;;;4.50;1.83;;;20.10;99.90;;;;;;5083135;28;20123;-71
2021/07/25 19:13:42;;;;;;;2.67;1.73;;;20.10;99.90;;;;;;5049480;28;20047;-72
2021/07/25 19:16:15;;;;;;;5.78;2.20;;;20.10;99.90;;;;;;5046838;28;20538;-72
2021/07/25 19:18:42;;;;;;;3.78;2.05;;;20.10;99.90;;;;;;5080167;28;20035;-71
2021/07/25 19:21:12;;;;;;;6.20;2.65;;;20.20;99.90;;;;;;5076579;28;20032;-72
2021/07/25 19:23:38;;;;;;;4.80;2.03;;;20.30;99.90;;;;;;5057687;28;20124;-71
2021/07/25 19:26:12;;;;;;;4.00;2.33;;;20.20;99.90;;;;;;5067388;28;20139;-72